createdAt,value
2018-12-09T00:02:24.085Z,-0.28
2018-12-09T00:05:02.649Z,-0.10
2018-12-09T00:07:40.869Z,-0.12
2018-12-09T00:10:16.904Z,-0.12
2018-12-09T00:17:53.097Z,-0.30
2018-12-09T00:20:29.128Z,-0.31
2018-12-09T00:23:01.597Z,-0.42
2018-12-09T00:25:33.675Z,-0.18
2018-12-09T00:28:06.517Z,-0.40
2018-12-09T00:30:42.666Z,-0.16
2018-12-09T00:33:15.557Z,-0.25
2018-12-09T00:35:48.449Z,-0.36
2018-12-09T00:38:20.943Z,-0.42
2018-12-09T00:40:53.935Z,-0.49
2018-12-09T00:43:26.532Z,-0.35
2018-12-09T00:45:58.700Z,-0.31
2018-12-09T00:48:30.930Z,-0.44
2018-12-09T00:51:07.904Z,-0.51
2018-12-09T00:53:43.993Z,-0.51
2018-12-09T00:56:16.354Z,-0.25
2018-12-09T00:58:49.213Z,-0.34
2018-12-09T01:01:21.612Z,-0.39
2018-12-09T01:03:53.739Z,-0.29
2018-12-09T01:06:26.502Z,0.05
2018-12-09T01:08:59.056Z,-0.13
2018-12-09T01:11:31.098Z,-0.28
2018-12-09T01:14:03.781Z,-0.25
2018-12-09T01:16:36.672Z,-0.20
2018-12-09T01:21:39.635Z,-0.37
2018-12-09T01:24:15.723Z,-0.49
2018-12-09T01:26:46.675Z,-0.51
2018-12-09T01:29:17.631Z,-0.53
2018-12-09T01:31:49.912Z,-0.59
2018-12-09T01:34:22.022Z,-0.41
2018-12-09T01:36:58.180Z,-0.20
2018-12-09T01:39:34.743Z,-0.39
2018-12-09T01:42:11.733Z,-0.31
2018-12-09T01:44:43.924Z,-0.28
2018-12-09T01:47:14.286Z,-0.15
2018-12-09T01:49:47.357Z,-0.29
2018-12-09T01:52:19.474Z,-0.52
2018-12-09T01:54:51.787Z,-0.70
2018-12-09T01:57:27.853Z,-0.98
2018-12-09T02:00:00.277Z,-0.92
2018-12-09T02:02:37.372Z,-0.90
2018-12-09T02:05:09.429Z,-0.89
2018-12-09T02:07:42.500Z,-0.84
2018-12-09T02:10:14.719Z,-0.74
2018-12-09T02:12:51.092Z,-0.07
2018-12-09T02:15:28.155Z,0.17
2018-12-09T02:18:04.422Z,0.28
2018-12-09T02:20:40.454Z,0.27
2018-12-09T02:23:12.775Z,0.45
2018-12-09T02:25:45.794Z,0.26
2018-12-09T02:28:15.887Z,0.20
2018-12-09T02:30:47.956Z,0.18
2018-12-09T02:33:24.938Z,0.02
2018-12-09T02:36:01.861Z,0.17
2018-12-09T02:38:34.802Z,0.18
2018-12-09T02:41:11.311Z,0.11
2018-12-09T02:43:44.237Z,0.16
2018-12-09T02:46:17.243Z,0.17
2018-12-09T02:48:49.515Z,0.17
2018-12-09T02:51:25.818Z,0.23
2018-12-09T02:53:57.959Z,0.23
2018-12-09T02:56:34.029Z,0.38
2018-12-09T02:59:06.189Z,0.54
2018-12-09T03:01:38.273Z,0.42
2018-12-09T03:04:10.518Z,0.36
2018-12-09T03:06:44.504Z,0.68
2018-12-09T03:09:20.539Z,0.63
2018-12-09T03:11:57.797Z,0.78
2018-12-09T03:14:31.070Z,0.80
2018-12-09T03:17:01.258Z,0.85
2018-12-09T03:19:38.313Z,0.83
2018-12-09T03:22:14.948Z,0.69
2018-12-09T03:24:47.774Z,0.52
2018-12-09T03:27:23.964Z,0.60
2018-12-09T03:30:00.413Z,0.50
2018-12-09T03:32:32.652Z,0.44
2018-12-09T03:35:09.344Z,0.36
2018-12-09T03:37:42.124Z,0.56
2018-12-09T03:40:14.780Z,0.43
2018-12-09T03:42:47.197Z,0.33
2018-12-09T03:45:20.170Z,0.15
2018-12-09T03:47:58.225Z,0.26
2018-12-09T03:50:30.757Z,0.09
2018-12-09T03:53:08.942Z,0.03
2018-12-09T03:55:39.072Z,0.00
2018-12-09T03:58:11.162Z,-0.03
2018-12-09T04:00:47.374Z,0.05
2018-12-09T04:03:19.485Z,0.23
2018-12-09T04:05:58.622Z,0.07
2018-12-09T04:08:30.819Z,-0.12
2018-12-09T04:11:03.342Z,-0.18
2018-12-09T04:13:36.227Z,-0.22
2018-12-09T04:16:06.549Z,-0.29
2018-12-09T04:18:40.766Z,-0.33
2018-12-09T04:21:14.292Z,0.04
2018-12-09T04:23:47.093Z,0.53
2018-12-09T04:26:23.832Z,0.42
2018-12-09T04:28:57.524Z,0.29
2018-12-09T04:31:29.849Z,0.33
2018-12-09T04:34:05.881Z,0.21
2018-12-09T04:36:41.976Z,-0.07
2018-12-09T04:39:12.267Z,-0.10
2018-12-09T04:41:46.009Z,-0.21
2018-12-09T04:44:23.385Z,-0.29
2018-12-09T04:46:56.117Z,-0.20
2018-12-09T04:49:29.322Z,-0.04
2018-12-09T04:52:06.933Z,-0.17
2018-12-09T04:54:39.304Z,0.07
2018-12-09T04:57:09.416Z,-0.10
2018-12-09T04:59:48.205Z,-0.18
2018-12-09T05:02:20.945Z,-0.37
2018-12-09T05:04:57.060Z,-0.44
2018-12-09T05:07:29.383Z,-0.49
2018-12-09T05:10:05.972Z,-0.43
2018-12-09T05:12:38.835Z,-0.43
2018-12-09T05:15:11.229Z,-0.63
2018-12-09T05:17:47.322Z,-0.36
2018-12-09T05:20:23.446Z,-0.47
2018-12-09T05:22:53.577Z,-0.52
2018-12-09T05:25:25.744Z,-0.51
2018-12-09T05:27:58.739Z,-0.55
2018-12-09T05:40:30.949Z,-0.56
2018-12-09T05:43:03.508Z,-0.61
2018-12-09T05:45:35.809Z,-0.60
2018-12-09T05:48:11.854Z,-0.58
2018-12-09T05:50:41.876Z,-0.58
2018-12-09T05:53:14.124Z,-0.46
2018-12-09T05:55:50.441Z,-0.72
2018-12-09T05:58:25.107Z,-0.69
2018-12-09T06:00:57.291Z,-0.75
2018-12-09T06:03:34.254Z,-0.71
2018-12-09T06:06:04.369Z,-0.70
2018-12-09T06:08:36.377Z,-0.61
2018-12-09T06:11:12.468Z,-0.80
2018-12-09T06:13:42.863Z,-1.07
2018-12-09T06:16:16.806Z,-1.18
2018-12-09T06:18:52.915Z,-1.15
2018-12-09T06:21:25.473Z,-0.93
2018-12-09T06:23:57.744Z,-0.93
2018-12-09T06:26:30.124Z,-0.75
2018-12-09T06:29:06.251Z,-0.60
2018-12-09T06:31:42.677Z,-0.83
2018-12-09T06:34:19.620Z,-0.74
2018-12-09T06:36:55.871Z,-0.63
2018-12-09T06:39:31.921Z,-0.32
2018-12-09T06:47:05.865Z,-0.50
2018-12-09T06:49:37.946Z,-0.62
2018-12-09T06:52:10.795Z,-0.66
2018-12-09T06:54:43.687Z,-0.01
2018-12-09T06:57:16.782Z,0.25
2018-12-09T06:59:48.839Z,0.29
2018-12-09T07:02:25.097Z,0.47
2018-12-09T07:04:58.057Z,0.38
2018-12-09T07:07:30.272Z,0.75
2018-12-09T07:10:02.633Z,1.35
2018-12-09T07:12:35.597Z,1.68
2018-12-09T07:15:08.112Z,1.80
2018-12-09T07:17:40.975Z,1.59
2018-12-09T07:20:17.219Z,1.70
2018-12-09T07:22:53.335Z,1.60
2018-12-09T07:25:26.321Z,1.85
2018-12-09T07:27:58.486Z,1.73
2018-12-09T07:30:30.828Z,1.75
2018-12-09T07:33:03.848Z,1.65
2018-12-09T07:35:39.843Z,1.82
2018-12-09T07:38:12.202Z,1.95
2018-12-09T07:40:44.538Z,2.26
2018-12-09T07:43:17.546Z,1.93
2018-12-09T07:45:49.626Z,1.85
2018-12-09T07:50:57.671Z,1.68
2018-12-09T07:53:29.993Z,1.66
2018-12-09T07:56:06.301Z,1.71
2018-12-09T07:58:38.742Z,2.51
2018-12-09T08:01:10.763Z,2.97
2018-12-09T08:03:47.460Z,3.40
2018-12-09T08:06:18.374Z,3.73
2018-12-09T08:08:50.426Z,4.17
2018-12-09T08:11:26.831Z,4.19
2018-12-09T08:13:59.797Z,3.99
2018-12-09T08:16:29.966Z,3.92
2018-12-09T08:19:00.214Z,4.28
2018-12-09T08:21:36.351Z,4.08
2018-12-09T08:24:08.615Z,4.55
2018-12-09T08:26:44.876Z,4.48
2018-12-09T08:29:21.182Z,4.99
2018-12-09T08:31:53.664Z,5.51
2018-12-09T08:34:29.705Z,5.81
2018-12-09T08:37:05.915Z,5.75
2018-12-09T08:39:42.052Z,6.02
2018-12-09T08:42:15.136Z,6.34
2018-12-09T08:44:47.251Z,6.82
2018-12-09T08:47:20.213Z,7.21
2018-12-09T08:49:56.818Z,7.62
2018-12-09T08:59:59.431Z,8.16
2018-12-09T09:02:36.463Z,8.46
2018-12-09T09:05:09.379Z,8.66
2018-12-09T09:07:41.499Z,8.18
2018-12-09T09:10:17.799Z,7.95
2018-12-09T09:12:55.030Z,6.98
2018-12-09T09:15:25.060Z,6.80
2018-12-09T09:17:56.011Z,6.62
2018-12-09T09:20:28.827Z,6.54
2018-12-09T09:23:05.147Z,6.50
2018-12-09T09:25:37.532Z,6.47
2018-12-09T09:28:09.869Z,6.13
2018-12-09T09:30:46.127Z,5.81
2018-12-09T09:33:22.148Z,5.55
2018-12-09T09:35:54.579Z,5.68
2018-12-09T09:38:27.420Z,5.75
2018-12-09T09:40:59.756Z,6.15
2018-12-09T09:43:36.038Z,6.41
2018-12-09T09:46:08.076Z,6.48
2018-12-09T09:48:40.352Z,6.56
2018-12-09T09:51:16.791Z,6.49
2018-12-09T09:53:49.023Z,6.35
2018-12-09T09:56:21.109Z,6.41
2018-12-09T09:58:57.234Z,6.47
2018-12-09T10:01:30.126Z,6.35
2018-12-09T10:14:00.938Z,6.42
2018-12-09T10:19:12.102Z,6.36
2018-12-09T10:21:44.344Z,6.39
2018-12-09T10:24:16.337Z,6.73
2018-12-09T10:26:48.798Z,6.66
2018-12-09T10:29:24.954Z,6.83
2018-12-09T10:31:58.100Z,7.27
2018-12-09T10:34:30.241Z,7.69
2018-12-09T10:37:02.399Z,7.65
2018-12-09T10:39:41.627Z,7.98
2018-12-09T10:42:14.049Z,7.80
2018-12-09T10:44:44.777Z,7.80
2018-12-09T10:47:18.714Z,7.73
2018-12-09T10:49:51.608Z,7.56
2018-12-09T10:52:24.837Z,7.58
2018-12-09T10:54:55.744Z,7.43
2018-12-09T10:57:26.056Z,7.39
2018-12-09T10:59:58.779Z,7.61
2018-12-09T11:02:31.140Z,7.76
2018-12-09T11:05:03.805Z,7.87
2018-12-09T11:07:36.004Z,7.55
2018-12-09T11:10:08.241Z,7.29
2018-12-09T11:12:40.969Z,7.19
2018-12-09T11:15:13.453Z,7.06
2018-12-09T11:25:17.208Z,6.91
2018-12-09T11:27:49.352Z,6.93
2018-12-09T11:30:21.641Z,7.05
2018-12-09T11:32:59.033Z,7.28
2018-12-09T11:35:31.947Z,7.31
2018-12-09T11:38:08.233Z,7.36
2018-12-09T11:40:40.464Z,7.49
2018-12-09T11:43:14.201Z,7.48
2018-12-09T11:45:50.611Z,7.38
2018-12-09T11:48:21.604Z,7.28
2018-12-09T11:50:51.769Z,7.36
2018-12-09T11:53:26.549Z,7.37
2018-12-09T11:55:57.244Z,7.38
2018-12-09T11:58:33.409Z,7.34
2018-12-09T12:01:05.534Z,7.16
2018-12-09T12:03:35.661Z,7.04
2018-12-09T12:06:11.893Z,6.76
2018-12-09T12:08:48.466Z,6.68
2018-12-09T12:11:20.591Z,6.63
2018-12-09T12:13:53.625Z,6.40
2018-12-09T12:16:24.517Z,6.44
2018-12-09T12:18:56.955Z,6.48
2018-12-09T12:21:29.060Z,6.55
2018-12-09T12:24:05.929Z,6.56
2018-12-09T12:31:44.683Z,6.69
2018-12-09T12:34:15.207Z,6.62
2018-12-09T12:36:45.335Z,6.68
2018-12-09T12:39:15.447Z,6.80
2018-12-09T12:41:51.895Z,6.77
2018-12-09T12:44:24.037Z,6.84
2018-12-09T12:47:00.296Z,6.62
2018-12-09T12:49:32.446Z,6.82
2018-12-09T12:52:04.827Z,6.95
2018-12-09T12:54:37.253Z,6.96
2018-12-09T12:57:13.376Z,6.72
2018-12-09T12:59:49.374Z,6.82
2018-12-09T13:02:25.584Z,7.09
2018-12-09T13:05:01.733Z,7.19
2018-12-09T13:07:38.003Z,7.13
2018-12-09T13:10:10.387Z,7.08
2018-12-09T13:12:43.282Z,7.07
2018-12-09T13:15:15.374Z,7.14
2018-12-09T13:17:47.533Z,7.09
2018-12-09T13:20:23.773Z,7.06
2018-12-09T13:22:59.912Z,7.08
2018-12-09T13:25:36.894Z,7.06
2018-12-09T13:28:13.099Z,6.99
2018-12-09T13:30:45.727Z,7.24
2018-12-09T13:58:21.648Z,7.62
2018-12-09T14:00:53.711Z,7.58
2018-12-09T14:03:29.993Z,7.38
2018-12-09T14:06:02.157Z,7.15
2018-12-09T14:08:35.235Z,7.18
2018-12-09T14:11:07.539Z,7.10
2018-12-09T14:13:43.740Z,6.89
2018-12-09T14:16:19.827Z,6.83
2018-12-09T14:18:56.095Z,6.92
2018-12-09T14:21:26.212Z,6.81
2018-12-09T14:23:56.861Z,6.91
2018-12-09T14:26:28.935Z,6.57
2018-12-09T14:29:05.207Z,6.46
2018-12-09T14:31:36.468Z,6.41
2018-12-09T14:34:09.407Z,6.43
2018-12-09T14:36:42.381Z,6.41
2018-12-09T14:39:14.739Z,6.33
2018-12-09T14:41:46.778Z,6.24
2018-12-09T14:44:22.931Z,6.07
2018-12-09T14:46:55.465Z,6.01
2018-12-09T14:49:27.737Z,6.03
2018-12-09T14:51:59.800Z,5.93
2018-12-09T14:54:32.452Z,5.91
2018-12-09T14:57:05.380Z,5.90
2018-12-09T14:59:35.689Z,5.81
2018-12-09T15:02:11.972Z,5.83
2018-12-09T15:04:44.288Z,5.60
2018-12-09T15:07:16.690Z,5.49
2018-12-09T15:09:53.054Z,5.53
2018-12-09T15:12:31.692Z,5.25
2018-12-09T15:15:04.736Z,5.15
2018-12-09T15:17:35.618Z,5.21
2018-12-09T15:20:09.011Z,5.20
2018-12-09T15:22:41.875Z,5.15
2018-12-09T15:25:14.781Z,4.96
2018-12-09T15:27:47.007Z,4.86
2018-12-09T15:30:18.071Z,4.83
2018-12-09T15:32:54.223Z,4.65
2018-12-09T15:35:26.355Z,4.54
2018-12-09T15:38:02.607Z,4.49
2018-12-09T15:40:35.556Z,4.58
2018-12-09T15:43:07.727Z,4.43
2018-12-09T15:48:22.472Z,4.49
2018-12-09T15:50:58.833Z,4.41
2018-12-09T15:53:31.760Z,4.40
2018-12-09T15:56:02.751Z,4.23
2018-12-09T15:58:32.966Z,4.36
2018-12-09T16:01:05.250Z,4.26
2018-12-09T16:03:38.177Z,4.24
2018-12-09T16:06:14.601Z,4.23
2018-12-09T16:08:50.744Z,4.19
2018-12-09T16:11:22.758Z,3.91
2018-12-09T16:13:55.130Z,3.86
2018-12-09T16:16:27.418Z,3.78
2018-12-09T16:18:59.553Z,3.73
2018-12-09T16:21:30.801Z,3.54
2018-12-09T16:24:08.615Z,3.39
2018-12-09T16:26:44.870Z,3.49
2018-12-09T16:29:18.014Z,3.45
2018-12-09T16:31:50.219Z,3.32
2018-12-09T16:34:22.348Z,3.20
2018-12-09T16:36:54.649Z,3.25
2018-12-09T16:39:30.602Z,3.19
2018-12-09T16:42:06.881Z,3.09
2018-12-09T16:44:42.940Z,3.01
2018-12-09T16:47:15.200Z,3.02
2018-12-09T16:49:51.428Z,2.91
2018-12-09T16:52:24.241Z,2.85
2018-12-09T16:54:56.537Z,2.87
2018-12-09T16:57:26.841Z,2.54
2018-12-09T16:59:59.010Z,2.53
2018-12-09T17:02:31.537Z,2.57
2018-12-09T17:05:03.809Z,2.64
2018-12-09T17:07:42.243Z,2.72
2018-12-09T17:10:14.996Z,2.77
2018-12-09T17:12:51.931Z,2.84
2018-12-09T17:15:28.152Z,2.86
2018-12-09T17:17:58.775Z,2.86
2018-12-09T17:20:30.864Z,2.86
2018-12-09T17:23:03.919Z,2.98
2018-12-09T17:25:36.203Z,3.17
2018-12-09T17:28:06.554Z,3.18
2018-12-09T17:30:39.535Z,3.19
2018-12-09T17:33:11.895Z,3.29
2018-12-09T17:35:45.347Z,3.19
2018-12-09T17:38:17.824Z,3.05
2018-12-09T17:40:53.880Z,3.16
2018-12-09T17:43:26.454Z,3.07
2018-12-09T17:45:56.524Z,3.02
2018-12-09T17:56:01.908Z,2.70
2018-12-09T17:58:35.046Z,2.67
2018-12-09T18:01:17.968Z,2.65
2018-12-09T18:03:54.227Z,2.58
2018-12-09T18:06:27.429Z,2.58
2018-12-09T18:09:00.548Z,2.54
2018-12-09T18:11:36.715Z,2.53
2018-12-09T18:14:10.915Z,2.42
2018-12-09T18:16:48.107Z,2.54
2018-12-09T18:19:21.200Z,2.51
2018-12-09T18:21:54.155Z,2.45
2018-12-09T18:24:25.387Z,2.41
2018-12-09T18:27:01.611Z,2.23
2018-12-09T18:29:37.811Z,2.01
2018-12-09T18:32:14.078Z,2.02
2018-12-09T18:34:46.992Z,1.93
2018-12-09T18:37:24.363Z,1.85
2018-12-09T18:40:00.691Z,1.82
2018-12-09T18:42:37.682Z,1.84
2018-12-09T18:45:14.000Z,2.03
2018-12-09T18:47:46.941Z,1.81
2018-12-09T18:50:20.015Z,1.81
2018-12-09T18:52:57.168Z,1.84
2018-12-09T18:55:29.900Z,1.97
2018-12-09T18:58:03.004Z,1.92
2018-12-09T19:00:36.591Z,1.86
2018-12-09T19:03:09.480Z,1.81
2018-12-09T19:05:42.459Z,1.92
2018-12-09T19:08:14.745Z,1.82
2018-12-09T19:10:51.319Z,1.93
2018-12-09T19:13:24.148Z,2.19
2018-12-09T19:16:00.855Z,1.87
2018-12-09T19:18:33.415Z,1.93
2018-12-09T19:21:05.771Z,1.75
2018-12-09T19:23:38.472Z,1.87
2018-12-09T19:26:16.728Z,1.77
2018-12-09T19:28:49.494Z,1.83
2018-12-09T19:31:25.759Z,1.90
2018-12-09T19:33:56.104Z,1.86
2018-12-09T19:36:29.162Z,1.75
2018-12-09T19:39:08.276Z,1.71
2018-12-09T19:41:41.382Z,1.77
2018-12-09T19:44:14.463Z,1.77
2018-12-09T19:46:46.735Z,2.15
2018-12-09T19:49:23.056Z,2.06
2018-12-09T19:51:55.799Z,2.33
2018-12-09T19:54:26.063Z,2.31
2018-12-09T20:01:59.152Z,2.03
2018-12-09T20:04:33.125Z,1.98
2018-12-09T20:07:06.920Z,2.03
2018-12-09T20:09:44.306Z,2.02
2018-12-09T20:12:17.754Z,2.00
2018-12-09T20:14:48.691Z,1.95
2018-12-09T20:17:22.046Z,1.86
2018-12-09T20:19:54.933Z,1.78
2018-12-09T20:22:31.180Z,1.63
2018-12-09T20:25:02.378Z,1.66
2018-12-09T20:27:38.591Z,1.69
2018-12-09T20:30:11.596Z,1.55
2018-12-09T20:32:43.759Z,1.62
2018-12-09T20:35:13.966Z,1.93
2018-12-09T20:37:47.204Z,2.15
2018-12-09T20:40:20.248Z,2.28
2018-12-09T20:42:56.369Z,1.96
2018-12-09T20:45:29.176Z,1.86
2018-12-09T20:48:02.685Z,1.76
2018-12-09T20:50:33.548Z,1.60
2018-12-09T20:53:06.527Z,1.48
2018-12-09T20:55:38.871Z,1.48
2018-12-09T20:58:12.037Z,1.38
2018-12-09T21:05:46.307Z,1.28
2018-12-09T21:08:22.865Z,1.27
2018-12-09T21:10:55.559Z,1.19
2018-12-09T21:13:31.805Z,1.16
2018-12-09T21:16:04.756Z,1.16
2018-12-09T21:18:36.990Z,1.09
2018-12-09T21:21:09.331Z,1.05
2018-12-09T21:23:42.267Z,1.22
2018-12-09T21:26:14.536Z,0.97
2018-12-09T21:28:47.482Z,0.94
2018-12-09T21:31:26.092Z,0.69
2018-12-09T21:34:00.888Z,0.63
2018-12-09T21:36:33.911Z,0.71
2018-12-09T21:39:07.590Z,0.67
2018-12-09T21:41:40.601Z,0.58
2018-12-09T21:44:16.885Z,0.58
2018-12-09T21:46:47.136Z,0.69
2018-12-09T21:49:23.669Z,0.73
2018-12-09T21:51:55.892Z,0.70
2018-12-09T21:54:27.961Z,0.96
2018-12-09T21:57:00.181Z,1.02
2018-12-09T21:59:32.306Z,0.78
2018-12-09T22:02:05.333Z,0.72
2018-12-09T22:04:41.901Z,0.72
2018-12-09T22:07:18.961Z,0.75
2018-12-09T22:09:55.970Z,0.82
2018-12-09T22:12:27.040Z,0.79
2018-12-09T22:14:59.260Z,0.70
2018-12-09T22:17:35.338Z,0.79
2018-12-09T22:20:07.615Z,0.66
2018-12-09T22:22:43.774Z,0.83
2018-12-09T22:25:20.812Z,0.66
2018-12-09T22:27:52.897Z,0.72
2018-12-09T22:30:28.996Z,0.99
2018-12-09T22:33:06.926Z,0.82
2018-12-09T22:35:39.263Z,0.81
2018-12-09T22:38:11.940Z,0.92
2018-12-09T22:40:44.123Z,0.83
2018-12-09T22:43:16.380Z,0.91
2018-12-09T22:45:53.482Z,0.80
2018-12-09T22:48:29.660Z,1.18
2018-12-09T22:51:05.822Z,1.04
2018-12-09T22:53:42.304Z,1.05
2018-12-09T22:56:18.513Z,0.94
2018-12-09T22:58:53.374Z,0.75
2018-12-09T23:01:24.106Z,0.75
2018-12-09T23:04:00.158Z,0.71
2018-12-09T23:06:33.049Z,0.64
2018-12-09T23:09:09.420Z,0.69
2018-12-09T23:11:42.352Z,0.54
2018-12-09T23:14:18.535Z,0.45
2018-12-09T23:16:50.732Z,0.37
2018-12-09T23:19:26.850Z,0.29
2018-12-09T23:22:02.985Z,0.29
2018-12-09T23:24:39.993Z,0.19
2018-12-09T23:27:12.827Z,0.09
2018-12-09T23:29:48.983Z,0.09
2018-12-09T23:32:25.184Z,-0.01
2018-12-09T23:34:58.166Z,0.03
2018-12-09T23:37:28.199Z,0.00
2018-12-09T23:40:06.709Z,0.02
2018-12-09T23:42:39.384Z,0.06
2018-12-09T23:45:11.708Z,0.03
2018-12-09T23:47:43.926Z,0.16
2018-12-09T23:50:15.915Z,0.15
2018-12-09T23:52:51.954Z,0.34
2018-12-09T23:55:28.310Z,0.43
2018-12-09T23:58:00.456Z,0.67
